createdAt,value
2019-04-05T00:00:46.628Z,1014.69
2019-04-05T00:01:46.618Z,1014.71
2019-04-05T00:02:46.609Z,1014.75
2019-04-05T00:03:46.601Z,1014.82
2019-04-05T00:04:46.592Z,1014.77
2019-04-05T00:05:46.583Z,1014.75
2019-04-05T00:06:46.576Z,1014.78
2019-04-05T00:07:46.566Z,1014.75
2019-04-05T00:08:46.556Z,1014.79
2019-04-05T00:09:46.548Z,1014.76
2019-04-05T00:10:46.538Z,1014.8
2019-04-05T00:11:46.530Z,1014.81
2019-04-05T00:17:46.476Z,1014.82
2019-04-05T00:18:46.468Z,1014.87
2019-04-05T00:19:46.459Z,1014.87
2019-04-05T00:20:46.458Z,1014.88
2019-04-05T00:21:46.440Z,1014.86
2019-04-05T00:22:46.434Z,1014.88
2019-04-05T00:23:46.424Z,1014.86
2019-04-05T00:24:46.414Z,1014.85
2019-04-05T00:25:46.404Z,1014.86
2019-04-05T00:26:46.395Z,1014.85
2019-04-05T00:27:46.387Z,1014.88
2019-04-05T00:28:46.376Z,1014.84
2019-04-05T00:29:46.370Z,1014.89
2019-04-05T00:30:46.359Z,1014.87
2019-04-05T00:31:46.352Z,1014.89
2019-04-05T01:47:45.647Z,1015.71
2019-04-05T01:48:45.637Z,1015.72
2019-04-05T01:49:45.627Z,1015.76
2019-04-05T01:50:45.620Z,1015.75
2019-04-05T01:51:45.609Z,1015.79
2019-04-05T01:52:45.598Z,1015.82
2019-04-05T01:53:45.590Z,1015.86
2019-04-05T01:54:45.580Z,1015.85
2019-04-05T01:55:45.569Z,1015.85
2019-04-05T01:56:45.559Z,1015.9
2019-04-05T02:00:45.520Z,1015.88
2019-04-05T02:01:45.511Z,1015.85
2019-04-05T02:02:45.502Z,1015.89
2019-04-05T02:03:45.493Z,1015.89
2019-04-05T02:04:45.482Z,1015.92
2019-04-05T02:05:45.472Z,1015.88
2019-04-05T02:06:45.463Z,1015.9
2019-04-05T02:07:45.452Z,1015.9
2019-04-05T02:08:45.442Z,1015.91
2019-04-05T02:09:45.433Z,1015.9
2019-04-05T02:10:45.422Z,1015.92
2019-04-05T02:11:45.413Z,1015.92
2019-04-05T02:12:45.403Z,1015.86
2019-04-05T02:13:45.393Z,1015.93
2019-04-05T02:14:45.383Z,1015.91
2019-04-05T02:15:45.373Z,1015.95
2019-04-05T02:16:45.363Z,1015.98
2019-04-05T02:17:45.354Z,1016
2019-04-05T02:18:45.343Z,1016.02
2019-04-05T02:19:45.337Z,1016.03
2019-04-05T02:20:45.323Z,1015.99
2019-04-05T02:21:45.314Z,1016.03
2019-04-05T02:22:45.304Z,1016.03
2019-04-05T02:23:45.293Z,1015.99
2019-04-05T02:24:45.287Z,1016.01
2019-04-05T02:25:45.272Z,1015.99
2019-04-05T02:26:45.264Z,1016.01
2019-04-05T02:27:45.256Z,1016.01
2019-04-05T02:28:45.245Z,1016
2019-04-05T02:29:45.235Z,1016
2019-04-05T02:30:45.223Z,1016.02
2019-04-05T02:31:45.215Z,1016.06
2019-04-05T02:32:45.205Z,1016.05
2019-04-05T02:33:45.197Z,1016.07
2019-04-05T02:34:45.194Z,1016.11
2019-04-05T02:35:45.178Z,1016.09
2019-04-05T02:36:45.163Z,1016.15
2019-04-05T02:37:45.154Z,1016.12
2019-04-05T02:38:45.145Z,1016.14
2019-04-05T02:39:45.135Z,1016.15
2019-04-05T02:40:45.126Z,1016.12
2019-04-05T02:41:45.116Z,1016.11
2019-04-05T02:42:45.105Z,1016.1
2019-04-05T02:43:45.095Z,1016.17
2019-04-05T02:44:45.087Z,1016.17
2019-04-05T02:45:45.076Z,1016.18
2019-04-05T03:09:44.831Z,1016.42
2019-04-05T03:10:44.821Z,1016.42
2019-04-05T03:11:44.815Z,1016.45
2019-04-05T03:12:44.800Z,1016.46
2019-04-05T03:13:44.789Z,1016.43
2019-04-05T03:14:44.784Z,1016.47
2019-04-05T03:15:44.769Z,1016.46
2019-04-05T03:16:44.759Z,1016.49
2019-04-05T03:17:44.748Z,1016.53
2019-04-05T03:18:44.743Z,1016.54
2019-04-05T03:19:44.729Z,1016.54
2019-04-05T03:20:44.717Z,1016.54
2019-04-05T03:21:44.706Z,1016.6
2019-04-05T03:22:44.696Z,1016.56
2019-04-05T03:23:44.694Z,1016.58
2019-04-05T03:24:44.677Z,1016.58
2019-04-05T03:25:48.042Z,1016.63
2019-04-05T03:26:44.657Z,1016.65
2019-04-05T03:27:44.644Z,1016.67
2019-04-05T03:28:44.633Z,1016.67
2019-04-05T03:29:44.624Z,1016.66
2019-04-05T03:30:44.614Z,1016.66
2019-04-05T03:31:44.602Z,1016.65
2019-04-05T03:32:44.610Z,1016.59
2019-04-05T03:33:44.581Z,1016.65
2019-04-05T03:34:44.574Z,1016.63
2019-04-05T03:35:44.561Z,1016.65
2019-04-05T03:36:44.553Z,1016.69
2019-04-05T03:37:44.542Z,1016.68
2019-04-05T03:38:44.529Z,1016.68
2019-04-05T03:39:44.517Z,1016.72
2019-04-05T03:40:44.506Z,1016.72
2019-04-05T03:41:44.502Z,1016.73
2019-04-05T03:42:44.574Z,1016.75
2019-04-05T03:43:44.475Z,1016.79
2019-04-05T03:44:44.464Z,1016.8
2019-04-05T03:45:44.456Z,1016.84
2019-04-05T03:46:55.965Z,1016.89
2019-04-05T03:50:45.208Z,1016.91
2019-04-05T03:51:44.389Z,1016.93
2019-04-05T03:52:44.384Z,1016.96
2019-04-05T03:53:44.367Z,1016.95
2019-04-05T03:54:44.355Z,1016.92
2019-04-05T03:55:44.346Z,1016.96
2019-04-05T03:56:44.348Z,1017
2019-04-05T03:57:44.330Z,1017.04
2019-04-05T03:58:44.313Z,1017.04
2019-04-05T03:59:44.303Z,1017.06
2019-04-05T04:00:44.293Z,1017.02
2019-04-05T04:01:44.281Z,1017.09
2019-04-05T04:02:44.272Z,1017.12
2019-04-05T04:03:44.260Z,1017.11
2019-04-05T04:04:44.249Z,1017.13
2019-04-05T04:05:44.240Z,1017.13
2019-04-05T04:06:44.229Z,1017.18
2019-04-05T04:07:44.215Z,1017.22
2019-04-05T04:08:44.214Z,1017.26
2019-04-05T04:09:44.197Z,1017.28
2019-04-05T04:10:44.183Z,1017.34
2019-04-05T04:11:44.172Z,1017.35
2019-04-05T04:12:44.173Z,1017.36
2019-04-05T04:13:44.150Z,1017.4
2019-04-05T04:14:44.139Z,1017.41
2019-04-05T04:15:44.187Z,1017.43
2019-04-05T04:16:44.119Z,1017.45
2019-04-05T04:17:44.110Z,1017.48
2019-04-05T04:18:44.199Z,1017.5
2019-04-05T04:19:44.094Z,1017.53
2019-04-05T04:20:44.074Z,1017.6
2019-04-05T04:21:44.063Z,1017.64
2019-04-05T04:22:44.053Z,1017.64
2019-04-05T04:23:44.042Z,1017.65
2019-04-05T04:24:44.029Z,1017.68
2019-04-05T04:25:44.019Z,1017.68
2019-04-05T04:26:44.011Z,1017.73
2019-04-05T04:27:43.999Z,1017.74
2019-04-05T04:28:43.997Z,1017.8
2019-04-05T04:29:43.974Z,1017.89
2019-04-05T04:30:43.964Z,1017.87
2019-04-05T04:31:43.953Z,1017.88
2019-04-05T04:32:43.963Z,1017.91
2019-04-05T04:33:43.929Z,1017.91
2019-04-05T04:34:43.918Z,1017.96
2019-04-05T04:35:43.910Z,1017.93
2019-04-05T04:36:43.895Z,1017.94
2019-04-05T04:37:43.885Z,1017.92
2019-04-05T04:38:43.873Z,1017.95
2019-04-05T04:39:43.864Z,1017.96
2019-04-05T04:40:43.850Z,1017.99
2019-04-05T04:41:43.841Z,1017.97
2019-04-05T04:42:43.830Z,1017.99
2019-04-05T04:43:43.818Z,1017.96
2019-04-05T04:44:43.804Z,1017.93
2019-04-05T04:45:43.795Z,1017.94
2019-04-05T04:46:43.789Z,1017.94
2019-04-05T04:47:43.772Z,1017.9
2019-04-05T04:48:43.760Z,1017.92
2019-04-05T04:49:43.750Z,1017.89
2019-04-05T04:50:43.737Z,1017.89
2019-04-05T04:51:43.726Z,1017.96
2019-04-05T04:52:43.715Z,1017.93
2019-04-05T04:53:43.710Z,1017.93
2019-04-05T04:54:43.695Z,1017.92
2019-04-05T04:55:43.681Z,1017.86
2019-04-05T04:56:43.669Z,1017.73
2019-04-05T04:57:43.660Z,1017.67
2019-04-05T04:58:46.197Z,1017.59
2019-04-05T04:59:43.637Z,1017.51
2019-04-05T05:00:43.626Z,1017.44
2019-04-05T05:01:43.617Z,1017.4
2019-04-05T05:02:43.603Z,1017.34
2019-04-05T05:03:43.596Z,1017.27
2019-04-05T05:04:43.582Z,1017.22
2019-04-05T05:05:43.572Z,1017.09
2019-04-05T05:06:43.560Z,1016.96
2019-04-05T05:07:43.550Z,1016.82
2019-04-05T05:08:43.540Z,1016.74
2019-04-05T05:09:43.527Z,1016.62
2019-04-05T05:10:43.518Z,1016.55
2019-04-05T05:11:43.509Z,1016.42
2019-04-05T05:12:43.500Z,1016.28
2019-04-05T05:13:43.488Z,1016.17
2019-04-05T05:14:43.478Z,1016.06
2019-04-05T05:15:43.469Z,1015.93
2019-04-05T05:16:43.462Z,1015.89
2019-04-05T05:17:43.448Z,1015.83
2019-04-05T05:18:43.440Z,1015.74
2019-04-05T05:19:43.432Z,1015.66
2019-04-05T05:20:43.421Z,1015.56
2019-04-05T05:21:43.412Z,1015.44
2019-04-05T05:22:43.404Z,1015.45
2019-04-05T05:23:43.395Z,1015.37
2019-04-05T05:24:43.394Z,1015.32
2019-04-05T05:25:43.377Z,1015.24
2019-04-05T05:26:43.369Z,1015.16
2019-04-05T05:27:43.362Z,1015.09
2019-04-05T05:28:43.354Z,1015.06
2019-04-05T05:29:43.595Z,1015.05
2019-04-05T05:30:43.337Z,1014.98
2019-04-05T05:31:43.329Z,1014.9
2019-04-05T05:32:43.321Z,1014.83
2019-04-05T05:33:43.335Z,1014.78
2019-04-05T05:34:43.307Z,1014.68
2019-04-05T05:35:43.298Z,1014.57
2019-04-05T05:36:43.292Z,1014.53
2019-04-05T05:37:43.287Z,1014.4
2019-04-05T05:38:43.280Z,1014.34
2019-04-05T05:39:43.271Z,1014.3
2019-04-05T05:40:43.283Z,1014.26
2019-04-05T05:41:43.258Z,1014.27
2019-04-05T05:42:43.252Z,1014.17
2019-04-05T05:43:43.246Z,1014.11
2019-04-05T05:44:43.240Z,1014.07
2019-04-05T05:45:43.234Z,1013.99
2019-04-05T05:46:43.229Z,1013.9
2019-04-05T05:47:51.457Z,1013.82
2019-04-05T05:48:43.217Z,1013.74
2019-04-05T05:49:43.210Z,1013.63
2019-04-05T05:50:43.206Z,1013.57
2019-04-05T05:51:43.209Z,1013.47
2019-04-05T05:52:43.199Z,1013.39
2019-04-05T05:53:43.191Z,1013.34
2019-04-05T05:54:43.186Z,1013.21
2019-04-05T05:55:43.196Z,1013.15
2019-04-05T05:56:43.178Z,1013.1
2019-04-05T05:57:43.172Z,1013.11
2019-04-05T05:58:43.167Z,1013.06
2019-04-05T05:59:43.165Z,1012.99
2019-04-05T06:00:43.158Z,1012.91
2019-04-05T06:01:43.156Z,1012.88
2019-04-05T06:02:43.151Z,1012.83
2019-04-05T06:03:43.147Z,1012.83
2019-04-05T06:04:43.144Z,1012.76
2019-04-05T06:05:43.143Z,1012.72
2019-04-05T06:06:43.140Z,1012.64
2019-04-05T06:07:43.134Z,1012.6
2019-04-05T06:08:43.131Z,1012.56
2019-04-05T06:09:43.125Z,1012.55
2019-04-05T06:10:43.123Z,1012.53
2019-04-05T06:11:43.119Z,1012.51
2019-04-05T06:12:43.119Z,1012.46
2019-04-05T06:13:43.118Z,1012.59
2019-04-05T06:14:43.111Z,1012.6
2019-04-05T06:15:43.110Z,1012.71
2019-04-05T06:16:46.476Z,1012.88
2019-04-05T06:17:43.102Z,1013.06
2019-04-05T06:18:43.100Z,1013.18
2019-04-05T06:19:43.099Z,1013.34
2019-04-05T06:20:43.094Z,1013.49
2019-04-05T06:21:43.092Z,1013.59
2019-04-05T06:22:43.087Z,1013.87
2019-04-05T06:23:43.086Z,1014.13
2019-04-05T06:24:43.082Z,1014.32
2019-04-05T06:25:43.082Z,1014.63
2019-04-05T06:26:43.075Z,1014.86
2019-04-05T06:27:43.072Z,1015.05
2019-04-05T06:28:43.158Z,1015.2
2019-04-05T06:29:43.065Z,1015.36
2019-04-05T06:30:43.060Z,1015.5
2019-04-05T06:31:43.306Z,1015.73
2019-04-05T06:32:43.052Z,1015.84
2019-04-05T06:33:43.047Z,1015.93
2019-04-05T06:34:43.043Z,1015.97
2019-04-05T06:35:43.039Z,1016.09
2019-04-05T06:36:43.036Z,1016.2
2019-04-05T06:37:43.031Z,1016.36
2019-04-05T06:38:43.025Z,1016.48
2019-04-05T06:39:43.019Z,1016.65
2019-04-05T06:40:43.014Z,1016.76
2019-04-05T06:41:43.007Z,1016.84
2019-04-05T06:42:43.002Z,1016.92
2019-04-05T06:43:42.998Z,1017.02
2019-04-05T06:44:42.990Z,1017.07
2019-04-05T06:45:43.005Z,1017.05
2019-04-05T06:46:42.978Z,1017.08
2019-04-05T06:47:42.972Z,1017.11
2019-04-05T06:48:42.964Z,1017.16
2019-04-05T06:49:42.958Z,1017.13
2019-04-05T06:50:42.955Z,1017.15
2019-04-05T06:51:42.957Z,1017.16
2019-04-05T06:52:42.940Z,1017.22
2019-04-05T06:53:42.936Z,1017.3
2019-04-05T06:54:42.923Z,1017.31
2019-04-05T06:55:42.916Z,1017.33
2019-04-05T06:56:42.909Z,1017.38
2019-04-05T06:57:42.936Z,1017.44
2019-04-05T06:58:46.031Z,1017.49
2019-04-05T06:59:42.888Z,1017.46
2019-04-05T07:00:55.990Z,1017.52
2019-04-05T07:01:42.904Z,1017.54
2019-04-05T07:02:43.116Z,1017.59
2019-04-05T07:03:42.858Z,1017.59
2019-04-05T07:04:42.851Z,1017.66
2019-04-05T07:05:42.843Z,1017.76
2019-04-05T07:06:42.836Z,1017.79
2019-04-05T07:07:42.828Z,1017.8
2019-04-05T07:08:52.956Z,1017.81
2019-04-05T07:09:42.812Z,1017.82
2019-04-05T07:10:45.125Z,1017.77
2019-04-05T07:11:42.797Z,1017.78
2019-04-05T07:12:42.817Z,1017.78
2019-04-05T07:13:42.781Z,1017.85
2019-04-05T07:14:42.772Z,1017.89
2019-04-05T07:15:42.765Z,1017.96
2019-04-05T07:16:42.757Z,1018.05
2019-04-05T07:17:42.752Z,1018.09
2019-04-05T07:18:42.741Z,1018.07
2019-04-05T07:19:42.733Z,1018.13
2019-04-05T07:20:42.725Z,1018.17
2019-04-05T07:21:42.716Z,1018.17
2019-04-05T07:22:42.708Z,1018.24
2019-04-05T07:23:42.699Z,1018.21
2019-04-05T07:24:42.691Z,1018.27
2019-04-05T07:25:42.683Z,1018.25
2019-04-05T07:26:42.676Z,1018.33
2019-04-05T07:27:42.668Z,1018.34
2019-04-05T07:28:42.659Z,1018.4
2019-04-05T07:29:42.651Z,1018.43
2019-04-05T07:30:42.644Z,1018.46
2019-04-05T07:31:42.634Z,1018.51
2019-04-05T07:32:42.625Z,1018.57
2019-04-05T07:33:42.867Z,1018.58
2019-04-05T07:34:42.608Z,1018.56
2019-04-05T07:35:42.602Z,1018.51
2019-04-05T07:36:42.591Z,1018.5
2019-04-05T07:37:42.582Z,1018.49
2019-04-05T07:38:42.574Z,1018.51
2019-04-05T07:39:42.565Z,1018.45
2019-04-05T07:40:42.558Z,1018.4
2019-04-05T07:41:42.551Z,1018.4
2019-04-05T07:42:42.543Z,1018.44
2019-04-05T07:43:42.531Z,1018.41
2019-04-05T07:44:42.522Z,1018.35
2019-04-05T07:45:42.514Z,1018.37
2019-04-05T07:46:42.505Z,1018.34
2019-04-05T07:47:42.502Z,1018.31
2019-04-05T07:48:44.888Z,1018.3
2019-04-05T07:49:42.484Z,1018.24
2019-04-05T07:50:42.472Z,1018.18
2019-04-05T07:51:42.463Z,1018.19
2019-04-05T07:52:42.458Z,1018.18
2019-04-05T07:53:42.446Z,1018.16
2019-04-05T07:54:42.437Z,1018.11
2019-04-05T07:55:42.428Z,1018.08
2019-04-05T07:56:42.420Z,1017.98
2019-04-05T07:57:42.412Z,1017.87
2019-04-05T07:58:42.403Z,1017.87
2019-04-05T07:59:42.396Z,1017.79
2019-04-05T08:00:42.386Z,1017.78
2019-04-05T08:01:42.378Z,1017.76
2019-04-05T08:02:42.369Z,1017.74
2019-04-05T08:03:42.361Z,1017.73
2019-04-05T08:04:42.355Z,1017.71
2019-04-05T08:05:42.356Z,1017.67
2019-04-05T08:06:42.336Z,1017.59
2019-04-05T08:07:42.328Z,1017.51
2019-04-05T08:08:42.320Z,1017.47
2019-04-05T08:09:42.313Z,1017.36
2019-04-05T08:10:42.305Z,1017.32
2019-04-05T08:11:42.297Z,1017.24
2019-04-05T08:12:42.289Z,1017.13
2019-04-05T08:13:42.280Z,1017.08
2019-04-05T08:14:42.275Z,1017.02
2019-04-05T08:15:42.268Z,1016.94
2019-04-05T08:16:42.257Z,1016.91
2019-04-05T08:17:42.250Z,1016.88
2019-04-05T08:18:42.242Z,1016.84
2019-04-05T08:19:42.234Z,1016.84
2019-04-05T08:20:42.227Z,1016.84
2019-04-05T08:21:42.220Z,1016.87
2019-04-05T08:22:42.213Z,1016.85
2019-04-05T08:23:42.208Z,1016.76
2019-04-05T08:24:42.198Z,1016.76
2019-04-05T08:25:42.190Z,1016.74
2019-04-05T08:26:42.184Z,1016.67
2019-04-05T08:27:42.175Z,1016.71
2019-04-05T08:28:42.178Z,1016.76
2019-04-05T08:29:42.162Z,1016.8
2019-04-05T08:30:42.154Z,1016.92
2019-04-05T08:31:42.147Z,1016.99
2019-04-05T08:32:42.140Z,1016.98
2019-04-05T08:33:42.135Z,1016.99
2019-04-05T08:34:42.126Z,1016.92
2019-04-05T08:35:42.121Z,1016.87
2019-04-05T08:36:42.114Z,1016.91
2019-04-05T08:37:42.106Z,1016.96
2019-04-05T08:38:42.098Z,1016.92
2019-04-05T08:39:42.092Z,1016.88
2019-04-05T08:40:42.084Z,1016.9
2019-04-05T08:41:42.078Z,1016.85
2019-04-05T08:42:42.071Z,1016.78
2019-04-05T08:43:42.065Z,1016.79
2019-04-05T08:44:42.066Z,1016.79
2019-04-05T08:45:42.050Z,1016.8
2019-04-05T08:46:42.044Z,1016.8
2019-04-05T08:47:42.037Z,1016.8
2019-04-05T08:48:42.031Z,1016.87
2019-04-05T08:49:42.023Z,1016.89
2019-04-05T08:50:42.017Z,1016.98
2019-04-05T08:51:42.015Z,1017.05
2019-04-05T08:52:42.003Z,1017.01
2019-04-05T08:53:41.997Z,1017
2019-04-05T08:54:41.990Z,1017.04
2019-04-05T08:55:41.985Z,1017.11
2019-04-05T08:56:41.976Z,1017.13
2019-04-05T08:57:41.970Z,1017.14
2019-04-05T08:58:41.968Z,1017.19
2019-04-05T08:59:41.957Z,1017.19
2019-04-05T09:00:41.951Z,1017.25
2019-04-05T09:01:41.943Z,1017.32
2019-04-05T09:02:41.961Z,1017.3
2019-04-05T09:03:41.931Z,1017.34
2019-04-05T09:04:41.923Z,1017.33
2019-04-05T09:05:41.919Z,1017.31
2019-04-05T09:06:41.911Z,1017.29
2019-04-05T09:07:41.905Z,1017.32
2019-04-05T09:08:41.897Z,1017.31
2019-04-05T09:09:41.890Z,1017.24
2019-04-05T09:10:41.882Z,1017.23
2019-04-05T09:11:41.875Z,1017.19
2019-04-05T09:12:41.869Z,1017.16
2019-04-05T09:13:41.865Z,1017.19
2019-04-05T09:14:41.860Z,1017.23
2019-04-05T09:15:41.849Z,1017.26
2019-04-05T09:16:41.841Z,1017.24
2019-04-05T09:17:41.834Z,1017.25
2019-04-05T09:18:41.827Z,1017.19
2019-04-05T09:19:41.821Z,1017.25
2019-04-05T09:20:41.819Z,1017.17
2019-04-05T09:21:41.807Z,1017.19
2019-04-05T09:22:41.801Z,1017.22
2019-04-05T09:23:41.795Z,1017.24
2019-04-05T09:24:41.788Z,1017.17
2019-04-05T09:25:41.783Z,1016.99
2019-04-05T09:26:41.773Z,1016.94
2019-04-05T09:27:41.768Z,1016.87
2019-04-05T09:28:41.761Z,1016.85
2019-04-05T09:29:41.753Z,1016.83
2019-04-05T09:30:41.746Z,1016.77
2019-04-05T09:31:41.745Z,1016.8
2019-04-05T09:32:41.732Z,1016.77
2019-04-05T09:33:41.726Z,1016.77
2019-04-05T09:34:41.719Z,1016.82
2019-04-05T09:35:41.714Z,1016.84
2019-04-05T09:36:41.707Z,1016.83
2019-04-05T09:37:41.701Z,1016.84
2019-04-05T09:38:41.694Z,1016.86
2019-04-05T09:39:41.688Z,1016.86
2019-04-05T09:40:41.681Z,1016.8
2019-04-05T09:41:41.675Z,1016.81
2019-04-05T09:42:41.668Z,1016.73
2019-04-05T09:43:41.662Z,1016.76
2019-04-05T09:44:41.656Z,1016.76
2019-04-05T09:45:41.650Z,1016.7
2019-04-05T09:46:47.093Z,1016.67
2019-04-05T09:47:41.637Z,1016.71
2019-04-05T09:48:41.632Z,1016.66
2019-04-05T09:49:41.623Z,1016.67
2019-04-05T09:50:41.618Z,1016.7
2019-04-05T09:51:41.612Z,1016.64
2019-04-05T09:52:41.642Z,1016.51
2019-04-05T09:53:41.600Z,1016.48
2019-04-05T09:54:41.596Z,1016.5
2019-04-05T09:55:41.587Z,1016.48
2019-04-05T09:56:41.585Z,1016.44
2019-04-05T09:57:41.576Z,1016.35
2019-04-05T09:58:41.571Z,1016.26
2019-04-05T09:59:41.564Z,1016.19
2019-04-05T10:00:41.558Z,1016.15
2019-04-05T10:01:41.552Z,1016.14
2019-04-05T10:02:41.546Z,1016.18
2019-04-05T10:03:41.541Z,1016.16
2019-04-05T10:04:41.535Z,1016.15
2019-04-05T10:05:41.529Z,1016.13
2019-04-05T10:06:41.524Z,1016.15
2019-04-05T10:07:54.085Z,1016.12
2019-04-05T10:08:41.518Z,1016.08
2019-04-05T10:09:41.508Z,1016.05
2019-04-05T10:10:41.501Z,1016.06
2019-04-05T10:11:41.498Z,1016.06
2019-04-05T10:12:41.495Z,1015.99
2019-04-05T10:13:41.489Z,1015.96
2019-04-05T10:14:41.482Z,1015.91
2019-04-05T10:15:41.477Z,1015.85
2019-04-05T10:16:41.471Z,1015.77
2019-04-05T10:17:41.466Z,1015.8
2019-04-05T10:18:41.462Z,1015.77
2019-04-05T10:19:49.547Z,1015.77
2019-04-05T10:20:41.451Z,1015.77
2019-04-05T10:21:41.447Z,1015.8
2019-04-05T10:22:41.442Z,1015.79
2019-04-05T10:23:41.438Z,1015.8
2019-04-05T10:24:41.432Z,1015.78
2019-04-05T10:25:43.662Z,1015.79
2019-04-05T10:26:41.423Z,1015.75
2019-04-05T10:27:41.418Z,1015.63
2019-04-05T10:28:41.414Z,1015.46
2019-04-05T10:29:41.409Z,1015.27
2019-04-05T10:30:41.407Z,1015.06
2019-04-05T10:31:41.399Z,1014.96
2019-04-05T10:32:41.395Z,1015.04
2019-04-05T10:33:41.416Z,1015.14
2019-04-05T10:34:41.387Z,1015.12
2019-04-05T10:35:41.387Z,1015.07
2019-04-05T10:36:41.380Z,1015.05
2019-04-05T10:37:41.375Z,1015.02
2019-04-05T10:38:41.370Z,1014.98
2019-04-05T10:39:41.367Z,1014.95
2019-04-05T10:40:41.367Z,1014.86
2019-04-05T10:41:41.360Z,1014.81
2019-04-05T10:42:41.355Z,1014.78
2019-04-05T10:43:41.352Z,1014.65
2019-04-05T10:44:41.349Z,1014.66
2019-04-05T10:45:41.344Z,1014.6
2019-04-05T10:46:41.341Z,1014.49
2019-04-05T10:47:41.338Z,1014.48
2019-04-05T10:48:41.334Z,1014.37
2019-04-05T10:49:41.332Z,1014.32
2019-04-05T10:50:41.330Z,1014.19
2019-04-05T10:51:41.324Z,1014.08
2019-04-05T10:52:41.321Z,1014.15
2019-04-05T10:53:41.318Z,1014.21
2019-04-05T10:54:41.319Z,1014.28
2019-04-05T10:55:41.313Z,1014.3
2019-04-05T10:56:41.309Z,1014.35
2019-04-05T10:57:41.309Z,1014.43
2019-04-05T10:58:41.304Z,1014.49
2019-04-05T10:59:41.303Z,1014.5
2019-04-05T11:00:41.299Z,1014.62
2019-04-05T11:01:41.296Z,1014.64
2019-04-05T11:02:41.294Z,1014.67
2019-04-05T11:03:41.291Z,1014.65
2019-04-05T11:04:41.288Z,1014.63
2019-04-05T11:05:41.287Z,1014.59
2019-04-05T11:06:41.283Z,1014.58
2019-04-05T11:07:41.280Z,1014.71
2019-04-05T11:08:41.278Z,1014.73
2019-04-05T11:09:41.276Z,1014.8
2019-04-05T11:10:41.274Z,1014.92
2019-04-05T11:11:41.270Z,1015.05
2019-04-05T11:12:41.268Z,1015.12
2019-04-05T11:13:41.266Z,1015.16
2019-04-05T11:14:41.263Z,1015.21
2019-04-05T11:15:41.258Z,1015.34
2019-04-05T11:16:41.258Z,1015.43
2019-04-05T11:17:42.453Z,1015.53
2019-04-05T11:18:41.258Z,1015.56
2019-04-05T11:19:41.248Z,1015.5
2019-04-05T11:20:41.247Z,1015.6
2019-04-05T11:21:41.245Z,1015.65
2019-04-05T11:22:41.239Z,1015.7
2019-04-05T11:23:41.236Z,1015.76
2019-04-05T11:24:41.233Z,1015.77
2019-04-05T11:25:41.232Z,1015.74
2019-04-05T11:26:41.227Z,1015.8
2019-04-05T11:27:41.223Z,1015.81
2019-04-05T11:28:41.221Z,1015.87
2019-04-05T11:29:41.216Z,1015.89
2019-04-05T11:30:41.215Z,1015.85
2019-04-05T11:31:41.211Z,1015.87
2019-04-05T11:32:41.208Z,1015.82
2019-04-05T11:33:41.204Z,1015.75
2019-04-05T11:34:41.202Z,1015.63
2019-04-05T11:35:41.196Z,1015.44
2019-04-05T11:36:41.193Z,1015.47
2019-04-05T11:37:41.190Z,1015.46
2019-04-05T11:38:41.186Z,1015.53
2019-04-05T11:39:41.182Z,1015.69
2019-04-05T11:40:41.181Z,1015.79
2019-04-05T11:41:41.174Z,1015.87
2019-04-05T11:42:41.171Z,1015.9
2019-04-05T11:43:41.418Z,1015.98
2019-04-05T11:44:41.167Z,1016
2019-04-05T11:45:41.161Z,1016.07
2019-04-05T11:46:41.157Z,1016.06
2019-04-05T11:47:41.168Z,1016.03
2019-04-05T11:48:41.488Z,1015.99
2019-04-05T11:49:41.146Z,1015.96
2019-04-05T11:50:41.142Z,1015.91
2019-04-05T11:51:43.123Z,1015.88
2019-04-05T11:52:41.134Z,1015.8
2019-04-05T11:53:41.129Z,1015.73
2019-04-05T11:54:41.127Z,1015.73
2019-04-05T11:55:41.123Z,1015.72
2019-04-05T11:56:41.120Z,1015.67
2019-04-05T11:57:41.930Z,1015.7
2019-04-05T11:58:41.112Z,1015.7
2019-04-05T11:59:41.108Z,1015.75
2019-04-05T12:00:41.105Z,1015.72
2019-04-05T12:01:41.104Z,1015.75
2019-04-05T12:02:41.105Z,1015.81
2019-04-05T12:03:41.093Z,1015.89
2019-04-05T12:04:42.785Z,1015.92
2019-04-05T12:05:41.087Z,1015.93
2019-04-05T12:06:41.083Z,1015.95
2019-04-05T12:07:41.080Z,1015.95
2019-04-05T12:08:41.076Z,1016.01
2019-04-05T12:09:41.072Z,1016.07
2019-04-05T12:10:41.068Z,1016.12
2019-04-05T12:11:41.065Z,1016.17
2019-04-05T12:12:41.062Z,1016.17
2019-04-05T12:13:41.058Z,1016.2
2019-04-05T12:14:41.054Z,1016.22
2019-04-05T12:15:41.051Z,1016.27
2019-04-05T12:16:41.047Z,1016.25
2019-04-05T12:17:41.042Z,1016.2
2019-04-05T12:18:41.039Z,1016.17
2019-04-05T12:19:41.035Z,1016.23
2019-04-05T12:20:48.274Z,1016.31
2019-04-05T12:21:41.027Z,1016.34
2019-04-05T12:22:41.046Z,1016.34
2019-04-05T12:23:41.020Z,1016.37
2019-04-05T12:24:41.015Z,1016.3
2019-04-05T12:25:41.012Z,1016.33
2019-04-05T12:26:42.621Z,1016.29
2019-04-05T12:27:41.005Z,1016.34
2019-04-05T12:28:40.999Z,1016.29
2019-04-05T12:29:40.995Z,1016.28
2019-04-05T12:30:40.992Z,1016.28
2019-04-05T12:31:40.987Z,1016.26
2019-04-05T12:32:41.669Z,1016.26
2019-04-05T12:33:40.982Z,1016.23
2019-04-05T12:34:40.976Z,1016.21
2019-04-05T12:35:40.972Z,1016.18
2019-04-05T12:36:40.968Z,1016.2
2019-04-05T12:37:49.879Z,1016.19
2019-04-05T12:38:40.961Z,1016.25
2019-04-05T12:39:40.960Z,1016.25
2019-04-05T12:40:41.330Z,1016.26
2019-04-05T12:41:41.846Z,1016.28
2019-04-05T12:42:43.433Z,1016.33
2019-04-05T12:43:43.638Z,1016.33
2019-04-05T12:44:44.555Z,1016.33
2019-04-05T12:45:44.270Z,1016.41
2019-04-05T12:46:40.927Z,1016.41
2019-04-05T12:47:40.923Z,1016.42
2019-04-05T12:48:40.919Z,1016.44
2019-04-05T12:49:40.916Z,1016.42
2019-04-05T12:50:44.463Z,1016.41
2019-04-05T12:51:40.907Z,1016.37
2019-04-05T12:52:40.903Z,1016.34
2019-04-05T12:53:40.901Z,1016.33
2019-04-05T12:54:40.894Z,1016.33
2019-04-05T12:55:40.892Z,1016.35
2019-04-05T12:56:40.887Z,1016.34
2019-04-05T12:57:40.881Z,1016.25
2019-04-05T12:58:40.877Z,1016.22
2019-04-05T12:59:40.873Z,1016.19
2019-04-05T13:00:40.870Z,1016.22
2019-04-05T13:01:40.864Z,1016.24
2019-04-05T13:02:40.860Z,1016.19
2019-04-05T13:03:40.857Z,1016.26
2019-04-05T13:04:40.856Z,1016.23
2019-04-05T13:05:40.848Z,1016.23
2019-04-05T13:06:42.255Z,1016.22
2019-04-05T13:07:40.839Z,1016.19
2019-04-05T13:08:40.834Z,1016.19
2019-04-05T13:09:40.856Z,1016.16
2019-04-05T13:10:40.838Z,1016.16
2019-04-05T13:11:40.823Z,1016.14
2019-04-05T13:12:40.819Z,1016.17
2019-04-05T13:13:40.815Z,1016.13
2019-04-05T13:14:40.811Z,1016.1
2019-04-05T13:15:40.805Z,1016.06
2019-04-05T13:16:40.801Z,1016.06
2019-04-05T13:17:40.800Z,1016.05
2019-04-05T13:18:40.795Z,1016
2019-04-05T13:19:40.788Z,1016
2019-04-05T13:20:40.785Z,1016
2019-04-05T13:21:40.781Z,1016.02
2019-04-05T13:22:40.776Z,1016
2019-04-05T13:23:40.776Z,1015.97
2019-04-05T13:24:40.767Z,1015.9
2019-04-05T13:25:41.579Z,1015.93
2019-04-05T13:26:41.989Z,1015.92
2019-04-05T13:27:41.496Z,1015.9
2019-04-05T13:28:40.752Z,1015.91
2019-04-05T13:29:40.749Z,1015.91
2019-04-05T13:30:40.743Z,1015.92
2019-04-05T13:31:40.740Z,1015.97
2019-04-05T13:32:40.736Z,1016
2019-04-05T13:33:40.733Z,1016.02
2019-04-05T13:34:40.727Z,1016.02
2019-04-05T13:35:40.724Z,1016.02
2019-04-05T13:36:40.719Z,1016
2019-04-05T13:37:40.715Z,1016.04
2019-04-05T13:38:40.711Z,1016.02
2019-04-05T13:39:40.707Z,1016
2019-04-05T13:40:40.705Z,1016.01
2019-04-05T13:41:40.698Z,1015.95
2019-04-05T13:42:40.868Z,1015.97
2019-04-05T13:43:40.698Z,1015.94
2019-04-05T13:44:40.687Z,1015.94
2019-04-05T13:45:40.683Z,1015.94
2019-04-05T13:46:42.650Z,1015.99
2019-04-05T13:47:40.676Z,1016.02
2019-04-05T13:48:40.750Z,1016.1
2019-04-05T13:49:41.399Z,1016.13
2019-04-05T13:50:41.613Z,1016.15
2019-04-05T13:51:41.956Z,1016.13
2019-04-05T13:52:42.044Z,1016.14
2019-04-05T13:53:41.123Z,1016.1
2019-04-05T13:54:40.976Z,1016.13
2019-04-05T13:55:41.350Z,1016.12
2019-04-05T13:56:41.421Z,1016.05
2019-04-05T13:57:41.209Z,1016.03